createdAt,value
2019-04-11T00:01:53.011Z,3.57
2019-04-11T00:04:22.035Z,3.71
2019-04-11T00:06:51.910Z,3.79
2019-04-11T00:09:20.912Z,3.78
2019-04-11T00:11:50.364Z,3.67
2019-04-11T00:14:19.974Z,3.46
2019-04-11T00:16:49.873Z,3.44
2019-04-11T00:19:19.070Z,3.66
2019-04-11T00:21:48.808Z,3.67
2019-04-11T00:24:18.662Z,3.68
2019-04-11T00:26:47.220Z,3.54
2019-04-11T00:29:16.397Z,3.48
2019-04-11T00:31:45.379Z,3.37
2019-04-11T00:34:15.127Z,3.22
2019-04-11T00:36:44.268Z,3.28
2019-04-11T00:39:13.323Z,3.27
2019-04-11T00:41:41.958Z,3.17
2019-04-11T00:44:10.481Z,3.16
2019-04-11T00:46:38.939Z,3.33
2019-04-11T00:49:08.242Z,3.28
2019-04-11T00:51:38.064Z,3.03
2019-04-11T00:54:06.771Z,3.25
2019-04-11T00:56:36.649Z,3.12
2019-04-11T00:59:05.836Z,3.11
2019-04-11T01:01:35.593Z,3.11
2019-04-11T01:04:04.429Z,3.13
2019-04-11T01:06:34.236Z,3.07
2019-04-11T01:09:04.822Z,3.11
2019-04-11T01:11:34.162Z,2.84
2019-04-11T01:14:03.580Z,2.76
2019-04-11T01:16:53.226Z,2.69
2019-04-11T01:19:22.607Z,2.78
2019-04-11T01:21:51.373Z,2.63
2019-04-11T01:24:19.964Z,2.73
2019-04-11T01:26:49.681Z,2.65
2019-04-11T01:29:19.593Z,2.83
2019-04-11T01:31:53.841Z,2.89
2019-04-11T01:34:22.767Z,2.75
2019-04-11T01:36:51.397Z,2.60
2019-04-11T01:39:35.064Z,2.55
2019-04-11T01:42:03.928Z,2.48
2019-04-11T01:44:32.586Z,2.44
2019-04-11T01:47:02.348Z,2.44
2019-04-11T01:49:32.321Z,2.57
2019-04-11T01:52:00.860Z,2.55
2019-04-11T01:54:30.000Z,2.55
2019-04-11T01:56:58.871Z,2.60
2019-04-11T01:59:27.490Z,2.57
2019-04-11T02:02:21.655Z,2.47
2019-04-11T02:04:58.596Z,2.37
2019-04-11T02:07:27.432Z,2.33
2019-04-11T02:09:56.754Z,2.39
2019-04-11T02:12:25.391Z,2.45
2019-04-11T02:14:54.032Z,2.35
2019-04-11T02:17:22.907Z,2.49
2019-04-11T02:19:52.313Z,2.48
2019-04-11T02:22:28.643Z,2.37
2019-04-11T02:25:03.826Z,2.39
2019-04-11T02:27:33.416Z,2.28
2019-04-11T02:30:04.065Z,2.14
2019-04-11T02:32:34.334Z,2.22
2019-04-11T02:35:05.184Z,2.17
2019-04-11T02:37:34.687Z,2.16
2019-04-11T02:40:07.578Z,2.15
2019-04-11T02:42:36.065Z,2.16
2019-04-11T02:45:23.097Z,2.11
2019-04-11T02:47:37.798Z,2.13
2019-04-11T02:50:08.121Z,2.04
2019-04-11T02:52:37.783Z,2.02
2019-04-11T02:55:08.502Z,1.94
2019-04-11T02:57:38.553Z,2.04
2019-04-11T03:00:10.491Z,2.16
2019-04-11T03:02:39.922Z,1.96
2019-04-11T03:05:11.383Z,2.24
2019-04-11T03:07:42.167Z,2.04
2019-04-11T03:10:13.435Z,1.87
2019-04-11T03:12:43.579Z,1.80
2019-04-11T03:15:27.500Z,1.98
2019-04-11T03:17:45.672Z,1.92
2019-04-11T03:20:25.571Z,1.92
2019-04-11T03:22:45.282Z,1.77
2019-04-11T03:25:15.720Z,1.78
2019-04-11T03:27:45.244Z,1.85
2019-04-11T03:30:22.829Z,1.85
2019-04-11T03:33:48.521Z,1.73
2019-04-11T03:36:07.734Z,1.85
2019-04-11T03:38:17.394Z,1.83
2019-04-11T03:40:36.522Z,1.77
2019-04-11T03:43:02.883Z,1.74
2019-04-11T03:45:44.112Z,1.76
2019-04-11T03:48:08.958Z,1.76
2019-04-11T03:50:25.289Z,1.72
2019-04-11T03:52:53.934Z,1.71
2019-04-11T03:55:24.058Z,1.80
2019-04-11T03:57:56.238Z,1.63
2019-04-11T04:00:31.412Z,1.84
2019-04-11T04:02:58.080Z,1.70
2019-04-11T04:05:30.166Z,1.69
2019-04-11T04:07:59.707Z,1.60
2019-04-11T04:10:30.110Z,1.59
2019-04-11T04:13:00.822Z,1.64
2019-04-11T04:16:02.740Z,1.53
2019-04-11T04:18:38.115Z,1.76
2019-04-11T04:21:17.518Z,1.51
2019-04-11T04:23:49.644Z,1.55
2019-04-11T04:26:19.330Z,1.43
2019-04-11T04:28:48.395Z,1.44
2019-04-11T04:31:18.495Z,1.43
2019-04-11T04:33:48.113Z,1.33
2019-04-11T04:36:18.277Z,1.44
2019-04-11T04:38:48.878Z,1.36
2019-04-11T04:41:29.840Z,1.37
2019-04-11T04:43:50.767Z,1.32
2019-04-11T04:46:34.800Z,1.36
2019-04-11T04:48:51.567Z,1.35
2019-04-11T04:51:23.754Z,1.24
2019-04-11T04:53:52.112Z,1.30
2019-04-11T04:56:26.045Z,1.29
2019-04-11T04:58:51.619Z,1.34
2019-04-11T05:01:21.691Z,1.36
2019-04-11T05:03:51.050Z,1.50
2019-04-11T05:06:20.606Z,1.26
2019-04-11T05:08:49.404Z,1.32
2019-04-11T05:11:18.110Z,1.35
2019-04-11T05:13:50.393Z,1.39
2019-04-11T05:16:18.083Z,1.42
2019-04-11T05:18:46.808Z,1.36
2019-04-11T05:21:15.332Z,1.43
2019-04-11T05:23:43.863Z,1.47
2019-04-11T05:26:12.491Z,1.46
2019-04-11T05:28:41.139Z,1.55
2019-04-11T05:31:10.166Z,1.48
2019-04-11T05:33:39.135Z,1.60
2019-04-11T05:36:08.200Z,1.62
2019-04-11T05:38:37.970Z,1.55
2019-04-11T05:41:09.658Z,1.71
2019-04-11T05:43:39.866Z,1.78
2019-04-11T05:46:23.967Z,1.73
2019-04-11T05:48:45.215Z,1.81
2019-04-11T05:51:18.540Z,1.80
2019-04-11T05:53:44.180Z,1.94
2019-04-11T05:56:13.952Z,2.04
2019-04-11T05:58:47.003Z,2.00
2019-04-11T06:01:20.276Z,2.21
2019-04-11T06:03:50.950Z,2.15
2019-04-11T06:06:26.805Z,2.30
2019-04-11T06:09:00.720Z,2.33
2019-04-11T06:11:45.309Z,2.40
2019-04-11T06:14:39.750Z,2.65
2019-04-11T06:17:11.494Z,2.60
2019-04-11T06:20:12.618Z,2.68
2019-04-11T06:22:54.559Z,2.87
2019-04-11T06:25:45.995Z,2.94
2019-04-11T06:28:24.703Z,3.05
2019-04-11T06:31:15.984Z,3.31
2019-04-11T06:33:53.117Z,3.17
2019-04-11T06:36:33.353Z,2.96
2019-04-11T06:39:16.289Z,3.26
2019-04-11T06:42:10.781Z,3.11
2019-04-11T06:45:04.627Z,3.14
2019-04-11T06:47:51.378Z,3.09
2019-04-11T06:50:43.873Z,3.36
2019-04-11T06:53:16.734Z,3.33
2019-04-11T06:56:10.502Z,3.63
2019-04-11T06:58:50.726Z,3.83
2019-04-11T07:01:22.401Z,3.87
2019-04-11T07:04:00.896Z,3.93
2019-04-11T07:06:31.454Z,4.23
2019-04-11T07:09:22.843Z,4.34
2019-04-11T07:11:54.904Z,4.35
2019-04-11T07:14:29.509Z,4.50
2019-04-11T07:17:16.368Z,4.91
2019-04-11T07:20:23.017Z,4.90
2019-04-11T07:23:10.117Z,5.10
2019-04-11T07:25:49.147Z,5.63
2019-04-11T07:28:41.691Z,5.81
2019-04-11T07:31:31.891Z,6.83
2019-04-11T07:34:27.352Z,6.99
2019-04-11T07:37:23.538Z,6.95
2019-04-11T07:40:07.416Z,7.26
2019-04-11T07:43:08.876Z,7.25
2019-04-11T07:45:53.704Z,8.93
2019-04-11T07:48:30.570Z,9.11
2019-04-11T07:51:11.039Z,9.96
2019-04-11T07:53:43.797Z,9.35
2019-04-11T07:56:28.040Z,9.13
2019-04-11T07:58:59.196Z,10.00
2019-04-11T08:01:42.564Z,10.79
2019-04-11T08:04:29.968Z,11.03
2019-04-11T08:07:36.111Z,11.35
2019-04-11T08:10:10.315Z,9.83
2019-04-11T08:12:39.378Z,9.94
2019-04-11T08:15:26.062Z,11.15
2019-04-11T08:17:54.612Z,10.75
2019-04-11T08:20:41.602Z,10.89
2019-04-11T08:23:10.227Z,13.46
2019-04-11T08:26:04.238Z,12.51
2019-04-11T08:28:34.397Z,11.31
2019-04-11T08:31:26.443Z,11.83
2019-04-11T08:34:01.084Z,11.90
2019-04-11T08:36:42.548Z,10.35
2019-04-11T08:39:17.288Z,12.66
2019-04-11T08:42:15.016Z,10.61
2019-04-11T08:44:44.834Z,12.21
2019-04-11T08:47:16.268Z,12.35
2019-04-11T08:49:48.178Z,12.03
2019-04-11T08:52:36.557Z,10.90
2019-04-11T08:55:12.406Z,13.53
2019-04-11T08:57:44.498Z,13.22
2019-04-11T09:00:24.263Z,12.77
2019-04-11T09:03:00.057Z,13.76
2019-04-11T09:05:42.872Z,14.96
2019-04-11T09:08:23.301Z,15.91
2019-04-11T09:11:14.943Z,13.70
2019-04-11T09:14:01.905Z,12.90
2019-04-11T09:16:42.573Z,14.48
2019-04-11T09:19:27.236Z,15.55
2019-04-11T09:22:26.593Z,16.16
2019-04-11T09:25:14.883Z,15.77
2019-04-11T09:27:50.954Z,15.66
2019-04-11T09:30:30.614Z,15.79
2019-04-11T09:33:19.034Z,14.80
2019-04-11T09:35:49.233Z,16.87
2019-04-11T09:38:18.218Z,16.07
2019-04-11T09:40:57.167Z,16.49
2019-04-11T09:43:28.991Z,15.34
2019-04-11T09:46:30.294Z,14.79
2019-04-11T09:49:12.361Z,15.42
2019-04-11T09:52:02.561Z,14.20
2019-04-11T09:54:37.990Z,16.26
2019-04-11T09:57:22.816Z,15.75
2019-04-11T10:00:18.455Z,16.20
2019-04-11T10:03:06.932Z,15.13
2019-04-11T10:06:12.242Z,13.41
2019-04-11T10:08:43.770Z,14.25
2019-04-11T10:11:30.723Z,16.18
2019-04-11T10:14:05.064Z,16.04
2019-04-11T10:16:52.628Z,15.39
2019-04-11T10:19:31.995Z,15.86
2019-04-11T10:22:23.001Z,14.69
2019-04-11T10:25:03.268Z,16.71
2019-04-11T10:28:04.856Z,17.61
2019-04-11T10:31:00.125Z,18.65
2019-04-11T10:33:47.156Z,18.87
2019-04-11T10:36:25.219Z,18.79
2019-04-11T10:39:27.015Z,17.26
2019-04-11T10:41:59.320Z,17.11
2019-04-11T10:44:38.987Z,18.88
2019-04-11T10:47:16.491Z,18.63
2019-04-11T10:50:01.298Z,18.42
2019-04-11T10:52:34.235Z,16.68
2019-04-11T10:55:09.716Z,16.57
2019-04-11T10:57:42.627Z,16.96
2019-04-11T11:00:29.386Z,15.65
2019-04-11T11:03:16.721Z,18.28
2019-04-11T11:05:49.326Z,15.05
2019-04-11T11:08:29.774Z,12.37
2019-04-11T11:11:01.206Z,12.69
2019-04-11T11:13:45.786Z,14.63
2019-04-11T11:16:14.417Z,14.25
2019-04-11T11:19:31.609Z,11.58
2019-04-11T11:21:34.016Z,11.11
2019-04-11T11:24:39.065Z,11.32
2019-04-11T11:27:05.722Z,12.18
2019-04-11T11:29:51.844Z,14.37
2019-04-11T11:32:45.872Z,14.62
2019-04-11T11:35:43.546Z,14.02
2019-04-11T11:38:19.920Z,13.70
2019-04-11T11:41:07.905Z,12.06
2019-04-11T11:43:36.588Z,12.08
2019-04-11T11:46:26.669Z,10.71
2019-04-11T11:49:07.905Z,10.83
2019-04-11T11:52:11.250Z,12.40
2019-04-11T11:54:44.316Z,14.08
2019-04-11T11:57:21.105Z,15.84
2019-04-11T11:59:54.178Z,16.50
2019-04-11T12:02:33.111Z,15.67
2019-04-11T12:05:12.276Z,16.37
2019-04-11T12:07:41.055Z,13.76
2019-04-11T12:10:22.532Z,11.73
2019-04-11T12:13:12.834Z,12.88
2019-04-11T12:16:03.659Z,15.12
2019-04-11T12:18:48.079Z,15.37
2019-04-11T12:21:21.820Z,14.89
2019-04-11T12:24:17.542Z,15.91
2019-04-11T12:26:54.289Z,18.13
2019-04-11T12:29:47.849Z,17.94
2019-04-11T12:32:16.529Z,17.26
2019-04-11T12:35:11.604Z,15.59
2019-04-11T12:37:45.427Z,16.26
2019-04-11T12:40:33.899Z,14.01
2019-04-11T12:43:03.294Z,12.97
2019-04-11T12:45:54.264Z,12.41
2019-04-11T12:48:27.622Z,12.85
2019-04-11T12:51:14.501Z,12.01
2019-04-11T12:53:44.651Z,12.95
2019-04-11T12:56:31.903Z,13.13
2019-04-11T12:59:03.492Z,11.91
2019-04-11T13:01:50.350Z,11.58
2019-04-11T13:04:22.366Z,11.63
2019-04-11T13:07:13.994Z,11.54
2019-04-11T13:09:57.238Z,12.18
2019-04-11T13:12:44.449Z,11.06
2019-04-11T13:15:21.828Z,10.48
2019-04-11T13:18:00.534Z,11.47
2019-04-11T13:20:48.084Z,11.47
2019-04-11T13:23:33.167Z,11.98
2019-04-11T13:26:18.726Z,12.03
2019-04-11T13:28:51.766Z,12.74
2019-04-11T13:31:38.940Z,12.70
2019-04-11T13:34:11.146Z,12.42
2019-04-11T13:36:57.643Z,13.68
2019-04-11T13:39:26.309Z,14.32
2019-04-11T13:42:26.649Z,12.66
2019-04-11T13:44:55.291Z,12.67
2019-04-11T13:47:43.535Z,12.59
2019-04-11T13:50:16.756Z,13.03
2019-04-11T13:53:02.146Z,14.73
2019-04-11T13:55:33.363Z,15.03
2019-04-11T13:58:30.510Z,13.59
2019-04-11T14:01:01.245Z,11.36
2019-04-11T14:03:49.647Z,10.98
2019-04-11T14:06:36.008Z,11.34
2019-04-11T14:09:39.840Z,11.29
2019-04-11T14:12:14.521Z,11.80
2019-04-11T14:14:52.085Z,11.71
2019-04-11T14:17:43.514Z,11.87
2019-04-11T14:20:29.306Z,14.13
2019-04-11T14:23:14.774Z,14.67
2019-04-11T14:26:01.601Z,14.19
2019-04-11T14:28:41.993Z,12.59
2019-04-11T14:31:22.651Z,11.61
2019-04-11T14:33:55.985Z,11.29
2019-04-11T14:36:43.683Z,11.40
2019-04-11T14:39:14.091Z,11.17
2019-04-11T14:42:13.853Z,11.17
2019-04-11T14:44:42.461Z,10.87
2019-04-11T14:47:39.926Z,10.63
2019-04-11T14:50:11.174Z,10.90
2019-04-11T14:52:56.901Z,10.20
2019-04-11T14:55:25.775Z,10.82
2019-04-11T14:58:12.637Z,11.12
2019-04-11T15:00:42.011Z,12.32
2019-04-11T15:03:30.400Z,12.95
2019-04-11T15:06:09.363Z,12.45
2019-04-11T15:08:57.557Z,10.77
2019-04-11T15:11:47.184Z,10.44
2019-04-11T15:14:51.560Z,10.32
2019-04-11T15:17:24.249Z,10.29
2019-04-11T15:20:09.183Z,10.28
2019-04-11T15:22:46.026Z,10.39
2019-04-11T15:25:29.668Z,10.75
2019-04-11T15:28:07.989Z,10.16
2019-04-11T15:30:38.084Z,10.16
2019-04-11T15:33:32.694Z,10.50
2019-04-11T15:36:01.803Z,10.23
2019-04-11T15:38:46.235Z,10.37
2019-04-11T15:41:15.063Z,10.42
2019-04-11T15:44:03.484Z,10.88
2019-04-11T15:46:33.597Z,10.70
2019-04-11T15:49:29.615Z,10.21
2019-04-11T15:52:00.705Z,9.91
2019-04-11T15:54:54.602Z,9.72
2019-04-11T15:57:31.536Z,9.58
2019-04-11T16:00:28.590Z,9.60
2019-04-11T16:03:07.506Z,9.36
2019-04-11T16:06:01.639Z,9.27
2019-04-11T16:09:00.981Z,9.40
2019-04-11T16:11:51.866Z,9.44
2019-04-11T16:14:26.096Z,9.63
2019-04-11T16:17:20.111Z,9.45
2019-04-11T16:19:53.504Z,9.44
2019-04-11T16:22:43.023Z,9.47
2019-04-11T16:25:13.477Z,9.29
2019-04-11T16:28:01.666Z,9.22
2019-04-11T16:30:30.914Z,9.63
2019-04-11T16:33:17.912Z,9.49
2019-04-11T16:35:56.960Z,9.23
2019-04-11T16:38:24.861Z,9.07
2019-04-11T16:41:13.166Z,9.74
2019-04-11T16:43:44.224Z,9.76
2019-04-11T16:46:31.106Z,9.47
2019-04-11T16:48:59.857Z,9.47
2019-04-11T16:51:31.188Z,9.48
2019-04-11T16:53:59.214Z,9.24
2019-04-11T16:56:27.842Z,9.31
2019-04-11T16:58:56.421Z,9.06
2019-04-11T17:01:25.036Z,8.82
2019-04-11T17:03:55.115Z,9.10
2019-04-11T17:06:42.348Z,8.98
2019-04-11T17:09:22.023Z,8.58
2019-04-11T17:11:50.594Z,8.27
2019-04-11T17:14:27.865Z,8.44
2019-04-11T17:16:49.519Z,8.40
2019-04-11T17:19:18.339Z,8.36
2019-04-11T17:21:48.433Z,8.59
2019-04-11T17:24:17.562Z,8.25
2019-04-11T17:26:46.048Z,8.25
2019-04-11T17:29:14.570Z,8.26
2019-04-11T17:31:43.315Z,8.09
2019-04-11T17:34:11.870Z,8.39
2019-04-11T17:36:40.511Z,8.35
2019-04-11T17:39:09.242Z,8.27
2019-04-11T17:41:41.791Z,8.14
2019-04-11T17:44:08.518Z,8.04
2019-04-11T17:46:37.122Z,8.09
2019-04-11T17:49:05.856Z,8.15
2019-04-11T17:51:35.278Z,8.05
2019-04-11T17:54:04.279Z,7.64
2019-04-11T17:56:32.950Z,7.88
2019-04-11T17:59:01.691Z,7.88
2019-04-11T18:01:30.303Z,7.57
2019-04-11T18:03:58.949Z,7.44
2019-04-11T18:06:27.657Z,7.39
2019-04-11T18:08:56.192Z,7.53
2019-04-11T18:11:26.133Z,7.34
2019-04-11T18:13:55.138Z,7.37
2019-04-11T18:16:23.755Z,7.36
2019-04-11T18:18:52.288Z,7.17
2019-04-11T18:21:20.996Z,7.26
2019-04-11T18:23:50.127Z,6.99
2019-04-11T18:26:21.408Z,7.04
2019-04-11T18:28:51.820Z,7.12
2019-04-11T18:31:20.351Z,7.10
2019-04-11T18:33:48.962Z,7.00
2019-04-11T18:36:17.575Z,6.94
2019-04-11T18:38:46.207Z,6.79
2019-04-11T18:41:14.717Z,6.54
2019-04-11T18:43:44.785Z,6.58
2019-04-11T18:46:14.000Z,6.74
2019-04-11T18:48:42.723Z,6.49
2019-04-11T18:51:11.443Z,6.59
2019-04-11T18:53:40.082Z,6.39
2019-04-11T18:56:08.683Z,6.47
2019-04-11T18:58:37.317Z,6.52
2019-04-11T19:01:08.816Z,6.49
2019-04-11T19:03:41.154Z,6.35
2019-04-11T19:06:07.702Z,6.22
2019-04-11T19:08:36.576Z,6.16
2019-04-11T19:11:05.335Z,6.19
2019-04-11T19:13:34.068Z,6.24
2019-04-11T19:16:02.822Z,6.01
2019-04-11T19:18:31.390Z,5.95
2019-04-11T19:21:00.139Z,5.80
2019-04-11T19:23:28.744Z,5.72
2019-04-11T19:25:57.392Z,5.68
2019-04-11T19:28:25.924Z,5.65
2019-04-11T19:30:56.863Z,5.55
2019-04-11T19:33:24.964Z,5.58
2019-04-11T19:35:53.707Z,5.38
2019-04-11T19:38:27.380Z,5.33
2019-04-11T19:40:55.904Z,5.33
2019-04-11T19:43:24.607Z,5.30
2019-04-11T19:45:53.327Z,5.33
2019-04-11T19:48:22.648Z,5.16
2019-04-11T19:50:53.315Z,5.11
2019-04-11T19:53:21.894Z,5.09
2019-04-11T19:55:56.265Z,5.02
2019-04-11T19:58:25.971Z,4.98
2019-04-11T20:00:54.695Z,4.86
2019-04-11T20:03:24.158Z,4.86
2019-04-11T20:05:53.230Z,4.84
2019-04-11T20:08:21.987Z,4.79
2019-04-11T20:10:50.655Z,4.79
2019-04-11T20:13:19.225Z,4.74
2019-04-11T20:15:50.401Z,4.64
2019-04-11T20:18:22.172Z,4.57
2019-04-11T20:20:48.612Z,4.59
2019-04-11T20:23:17.117Z,4.53
2019-04-11T20:25:49.096Z,4.56
2019-04-11T20:28:16.189Z,4.47
2019-04-11T20:30:44.799Z,4.54
2019-04-11T20:33:13.333Z,4.47
2019-04-11T20:35:41.858Z,4.50
2019-04-11T20:38:10.369Z,4.41
2019-04-11T20:40:38.995Z,4.46
2019-04-11T20:43:10.093Z,4.47
2019-04-11T20:45:39.373Z,4.31
2019-04-11T20:48:08.076Z,4.25
2019-04-11T20:50:36.813Z,4.23
2019-04-11T20:53:12.709Z,4.31
2019-04-11T20:55:39.093Z,4.25
2019-04-11T20:58:09.898Z,4.19
2019-04-11T21:00:49.626Z,4.28
2019-04-11T21:03:08.874Z,4.29
2019-04-11T21:05:37.684Z,4.21
2019-04-11T21:08:06.390Z,4.17
2019-04-11T21:10:35.044Z,4.11
2019-04-11T21:13:06.871Z,4.17
2019-04-11T21:15:34.130Z,4.11
2019-04-11T21:18:02.851Z,3.93
2019-04-11T21:20:31.492Z,3.90
2019-04-11T21:23:00.153Z,3.91
2019-04-11T21:25:31.387Z,3.95
2019-04-11T21:28:00.044Z,3.86
2019-04-11T21:30:30.335Z,3.81
2019-04-11T21:33:01.161Z,3.83
2019-04-11T21:35:31.037Z,3.80
2019-04-11T21:38:00.945Z,3.90
2019-04-11T21:40:30.543Z,3.77
2019-04-11T21:42:59.201Z,3.70
2019-04-11T21:45:27.834Z,3.75
2019-04-11T21:47:56.571Z,3.75
2019-04-11T21:50:25.190Z,3.84
2019-04-11T21:52:53.795Z,3.70
2019-04-11T21:55:22.442Z,3.75
2019-04-11T21:57:50.950Z,3.65
2019-04-11T22:00:27.449Z,3.64
2019-04-11T22:02:56.133Z,3.81
2019-04-11T22:05:28.998Z,3.84
2019-04-11T22:07:55.295Z,4.05
2019-04-11T22:10:23.914Z,4.15
2019-04-11T22:12:52.587Z,4.21
2019-04-11T22:15:21.191Z,4.37
2019-04-11T22:17:49.699Z,4.22
2019-04-11T22:20:18.420Z,4.33
2019-04-11T22:22:46.957Z,4.36
2019-04-11T22:25:15.455Z,4.32
2019-04-11T22:27:44.216Z,4.46
2019-04-11T22:30:16.507Z,4.30
2019-04-11T22:32:48.995Z,4.28
2019-04-11T22:35:17.598Z,4.48
2019-04-11T22:37:46.344Z,4.51
2019-04-11T22:40:15.032Z,4.54
2019-04-11T22:42:43.670Z,4.60
2019-04-11T22:45:12.391Z,4.61
2019-04-11T22:47:40.920Z,4.59
2019-04-11T22:50:10.623Z,4.62
2019-04-11T22:52:39.819Z,4.60
2019-04-11T22:55:11.335Z,4.68
2019-04-11T22:57:43.761Z,4.55
2019-04-11T23:00:15.310Z,4.59
2019-04-11T23:03:17.043Z,4.57
2019-04-11T23:05:46.960Z,4.75
2019-04-11T23:08:18.994Z,4.86
2019-04-11T23:10:47.448Z,4.92
2019-04-11T23:13:16.389Z,4.89
2019-04-11T23:15:47.288Z,4.89
2019-04-11T23:18:15.815Z,4.90
2019-04-11T23:20:44.766Z,4.84
2019-04-11T23:23:14.091Z,4.84
2019-04-11T23:25:42.718Z,4.88
2019-04-11T23:28:15.656Z,4.92
2019-04-11T23:30:41.857Z,4.97
2019-04-11T23:33:10.675Z,4.96
2019-04-11T23:35:39.296Z,4.92
2019-04-11T23:38:07.839Z,4.93
2019-04-11T23:40:36.378Z,4.85
2019-04-11T23:43:05.113Z,4.95
2019-04-11T23:45:33.737Z,5.25
2019-04-11T23:48:02.557Z,5.36
2019-04-11T23:50:31.338Z,5.09
2019-04-11T23:52:59.852Z,4.91
2019-04-11T23:55:30.716Z,4.95
2019-04-11T23:58:01.143Z,4.91
